»·PEaware :: N4269T KGEG-KHQM

N4269T :: KGEG-KHQM

FLIGHT INFORMATION

Flight Status: Arrived
Operator: Privately registered:
United States
More flights under this callsign
Pilot: Chuck O. (4337)
Aircraft: Unknown
(B60T)
More flights by this aircraft type
Origin: KGEG Spokane Intl
United States
Destination: KHQM Bowerman
United States
More flights between these airports :: More routes between these airports
Route: +GEG6 EPH J70 ELMAA OZALU
File this flight plan on PilotEdge
Remarks: ABC WA LEG7
Altitude:
(Current/Filed)
22,000ft
Speed:
(Current/Filed)
250kts
Departed: 09-May-20 09:16 AM
Arrived: 09-May-20 10:44 AM
Distance/Time
Traveled:
263nm/1:28
Distance/Time
To Go:
Arrived

Flight Plot

Page will automatically refresh every two minutes.

Flight plan parsing failed; only flown route is shown


Map Options




Map Legend


Flown Route
Filed Route
Departure Airport
Arrival Airport
Navaid (VOR, NDB)
Fix

Horizontal Profiles

Position Reports

Time Latitude Longitude Heading Altitude Ground
Speed
09-May-20 08:47 47.620749 -117.524166 90 2353ft 0kts
09-May-20 08:48 47.620749 -117.524124 85 2353ft 1kts
09-May-20 08:49 47.622338 -117.525176 357 2353ft 8kts
09-May-20 08:50 47.623396 -117.525221 356 2353ft 0kts
09-May-20 08:51 47.623409 -117.525222 356 2353ft 0kts
09-May-20 08:52 47.623412 -117.525222 356 2353ft 0kts
09-May-20 08:53 47.623414 -117.525222 356 2353ft 0kts
09-May-20 08:54 47.623417 -117.525223 356 2353ft 0kts
09-May-20 08:55 47.623420 -117.525223 356 2353ft 0kts
09-May-20 08:56 47.623423 -117.525223 355 2353ft 0kts
09-May-20 08:57 47.623426 -117.525224 355 2353ft 0kts
09-May-20 08:58 47.623428 -117.525224 355 2353ft 0kts
09-May-20 08:59 47.623431 -117.525224 355 2353ft 0kts
09-May-20 09:00 47.623434 -117.525224 355 2353ft 0kts
09-May-20 09:01 47.623437 -117.525225 355 2353ft 0kts
09-May-20 09:02 47.623440 -117.525225 355 2353ft 0kts
09-May-20 09:03 47.623442 -117.525225 355 2353ft 0kts
09-May-20 09:04 47.623679 -117.525395 310 2353ft 0kts
09-May-20 09:05 47.623680 -117.525398 310 2353ft 0kts
09-May-20 09:06 47.623227 -117.526858 225 2353ft 4kts
09-May-20 09:07 47.622376 -117.528137 225 2353ft 8kts
09-May-20 09:08 47.618952 -117.533257 224 2353ft 19kts
09-May-20 09:09 47.615330 -117.538708 224 2353ft 18kts
09-May-20 09:10 47.613168 -117.542031 260 2353ft 0kts
09-May-20 09:11 47.613297 -117.542513 309 2353ft 8kts
09-May-20 09:12 47.613681 -117.543076 310 2353ft 0kts
09-May-20 09:13 47.613683 -117.543080 310 2353ft 0kts
09-May-20 09:14 47.614564 -117.543399 40 2353ft 4kts
09-May-20 09:15 47.635149 -117.513864 41 3157ft 147kts
09-May-20 09:16 47.669856 -117.471943 40 4970ft 169kts
09-May-20 09:17 47.707338 -117.428924 40 7165ft 171kts
09-May-20 09:18 47.746095 -117.384818 40 9367ft 178kts
09-May-20 09:19 47.785034 -117.337622 40 11572ft 183kts
09-May-20 09:20 47.825768 -117.284114 39 12008ft 199kts
09-May-20 09:21 47.871527 -117.270171 304 12014ft 191kts
09-May-20 09:22 47.861781 -117.337894 251 13224ft 177kts
09-May-20 09:23 47.844913 -117.412690 254 15075ft 192kts
09-May-20 09:24 47.828288 -117.487590 256 17171ft 189kts
09-May-20 09:25 47.811868 -117.561342 257 19271ft 185kts
09-May-20 09:26 47.795734 -117.633545 258 21362ft 181kts
09-May-20 09:27 47.779745 -117.705478 258 22325ft 204kts
09-May-20 09:28 47.760386 -117.791428 257 22313ft 232kts
09-May-20 09:29 47.738714 -117.887233 256 22311ft 256kts
09-May-20 09:30 47.715478 -117.989616 256 22309ft 264kts
09-May-20 09:31 47.691994 -118.092514 256 22308ft 262kts
09-May-20 09:32 47.668442 -118.195265 255 22307ft 262kts
09-May-20 09:33 47.644828 -118.297825 255 22305ft 262kts
09-May-20 09:34 47.621202 -118.400014 255 22303ft 263kts
09-May-20 09:35 47.597334 -118.502675 255 22287ft 263kts
09-May-20 09:36 47.573391 -118.605168 255 22283ft 263kts
09-May-20 09:37 47.549384 -118.707450 254 22279ft 263kts
09-May-20 09:38 47.525267 -118.809705 254 22276ft 263kts
09-May-20 09:39 47.500980 -118.912211 254 22273ft 263kts
09-May-20 09:40 47.476724 -119.014100 254 22270ft 263kts
09-May-20 09:41 47.452219 -119.116560 254 22268ft 264kts
09-May-20 09:42 47.427680 -119.218684 254 22267ft 263kts
09-May-20 09:43 47.403056 -119.320693 253 22266ft 264kts
09-May-20 09:44 47.379632 -119.423349 263 22272ft 261kts
09-May-20 09:45 47.381377 -119.529515 274 22274ft 259kts
09-May-20 09:46 47.384673 -119.635983 274 22276ft 259kts
09-May-20 09:47 47.387882 -119.742355 274 22280ft 260kts
09-May-20 09:49 47.391008 -119.849169 274 22286ft 260kts
09-May-20 09:50 47.394027 -119.955693 274 22294ft 260kts
09-May-20 09:51 47.396949 -120.062167 273 22300ft 261kts
09-May-20 09:52 47.399785 -120.169396 273 22303ft 261kts
09-May-20 09:53 47.402524 -120.276706 273 22303ft 261kts
09-May-20 09:54 47.405158 -120.383784 273 22300ft 261kts
09-May-20 09:55 47.407692 -120.490932 273 22295ft 261kts
09-May-20 09:56 47.410127 -120.598123 273 22281ft 261kts
09-May-20 09:57 47.412468 -120.705686 273 22260ft 261kts
09-May-20 09:58 47.414700 -120.812766 273 22258ft 261kts
09-May-20 09:59 47.416832 -120.919841 272 22256ft 261kts
09-May-20 10:00 47.418872 -121.027449 272 22256ft 261kts
09-May-20 10:01 47.420805 -121.134741 272 22256ft 261kts
09-May-20 10:02 47.422638 -121.242041 272 22257ft 262kts
09-May-20 10:03 47.424375 -121.349618 272 22255ft 262kts
09-May-20 10:04 47.426013 -121.457378 271 22244ft 262kts
09-May-20 10:05 47.427553 -121.565329 271 22228ft 262kts
09-May-20 10:06 47.428899 -121.666087 271 22204ft 263kts
09-May-20 10:06 47.429741 -121.732822 271 22187ft 263kts
09-May-20 10:07 47.431028 -121.840999 271 22159ft 263kts
09-May-20 10:08 47.432214 -121.949187 271 22137ft 263kts
09-May-20 10:10 47.433471 -122.075464 270 22121ft 264kts
09-May-20 10:10 47.434280 -122.165735 270 22116ft 264kts
09-May-20 10:11 47.435161 -122.274339 270 22114ft 264kts
09-May-20 10:12 47.416920 -122.378042 250 22115ft 264kts
09-May-20 10:13 47.391618 -122.479999 250 22111ft 264kts
09-May-20 10:14 47.365585 -122.581789 249 22109ft 264kts
09-May-20 10:15 47.339464 -122.682903 249 22108ft 264kts
09-May-20 10:16 47.313164 -122.784155 249 22108ft 264kts
09-May-20 10:17 47.286739 -122.885428 249 22102ft 264kts
09-May-20 10:18 47.260284 -122.986371 249 22091ft 264kts
09-May-20 10:19 47.233790 -123.087023 248 22085ft 264kts
09-May-20 10:20 47.207184 -123.187661 248 22083ft 263kts
09-May-20 10:21 47.180591 -123.287766 248 22084ft 263kts
09-May-20 10:22 47.153841 -123.388024 248 22083ft 263kts
09-May-20 10:23 47.128111 -123.484166 248 21227ft 241kts
09-May-20 10:24 47.104147 -123.573176 247 19462ft 244kts
09-May-20 10:25 47.078361 -123.672650 248 16808ft 241kts
09-May-20 10:26 47.057250 -123.749677 247 16442ft 187kts
09-May-20 10:27 47.037137 -123.826564 247 14670ft 211kts
09-May-20 10:28 47.016105 -123.907211 246 12744ft 211kts
09-May-20 10:29 46.995083 -123.987654 246 10742ft 211kts
09-May-20 10:30 46.974032 -124.067985 246 8746ft 212kts
09-May-20 10:31 46.952810 -124.148706 247 6743ft 211kts
09-May-20 10:32 46.926453 -124.220129 214 5281ft 188kts
09-May-20 10:33 46.896270 -124.259616 218 4218ft 139kts
09-May-20 10:34 46.881203 -124.308482 289 2721ft 142kts
09-May-20 10:35 46.917693 -124.323927 39 2653ft 154kts
09-May-20 10:36 46.929451 -124.267839 79 2653ft 149kts
09-May-20 10:37 46.937264 -124.209129 81 2621ft 145kts
09-May-20 10:38 46.944255 -124.158206 79 2864ft 122kts
09-May-20 10:39 46.950255 -124.104286 81 2216ft 125kts
09-May-20 10:40 46.956766 -124.053638 81 1521ft 133kts
09-May-20 10:41 46.963315 -124.000671 80 792ft 125kts
09-May-20 10:42 46.968861 -123.955964 79 236ft 112kts
09-May-20 10:43 46.971962 -123.933408 358 17ft 10kts
09-May-20 10:44 46.972645 -123.933225 77 17ft 4kts
09-May-20 10:45 46.972785 -123.932001 77 17ft 3kts
09-May-20 10:46 46.973473 -123.930719 126 17ft 2kts
09-May-20 10:47 46.973351 -123.930680 166 17ft 0kts
09-May-20 10:48 46.973351 -123.930680 166 17ft 0kts

Navigation Log

Ident Type
Flight plan parsing failed, navigation log unavailable